sensor_id;sensor_type;location;lat;lon;timestamp;temperature;humidity
19248;DHT22;9758;48.640;8.148;2022-10-31T00:01:39;18.50;51.80
19248;DHT22;9758;48.640;8.148;2022-10-31T00:04:07;18.50;51.80
19248;DHT22;9758;48.640;8.148;2022-10-31T00:06:34;18.50;51.80
19248;DHT22;9758;48.640;8.148;2022-10-31T00:09:02;18.50;51.80
19248;DHT22;9758;48.640;8.148;2022-10-31T00:11:30;18.50;51.80
19248;DHT22;9758;48.640;8.148;2022-10-31T00:13:57;18.50;51.70
19248;DHT22;9758;48.640;8.148;2022-10-31T00:16:24;18.50;51.70
19248;DHT22;9758;48.640;8.148;2022-10-31T00:18:53;18.50;51.70
19248;DHT22;9758;48.640;8.148;2022-10-31T00:21:22;18.50;51.70
19248;DHT22;9758;48.640;8.148;2022-10-31T00:23:49;18.50;51.70
19248;DHT22;9758;48.640;8.148;2022-10-31T00:26:16;18.50;51.70
19248;DHT22;9758;48.640;8.148;2022-10-31T00:28:43;18.50;51.70
19248;DHT22;9758;48.640;8.148;2022-10-31T00:31:11;18.50;51.70
19248;DHT22;9758;48.640;8.148;2022-10-31T00:33:39;18.50;51.70
19248;DHT22;9758;48.640;8.148;2022-10-31T00:36:07;18.40;51.70
19248;DHT22;9758;48.640;8.148;2022-10-31T00:38:35;18.40;51.70
19248;DHT22;9758;48.640;8.148;2022-10-31T00:41:02;18.40;51.70
19248;DHT22;9758;48.640;8.148;2022-10-31T00:43:29;18.40;51.70
19248;DHT22;9758;48.640;8.148;2022-10-31T00:45:55;18.40;51.60
19248;DHT22;9758;48.640;8.148;2022-10-31T00:48:22;18.30;51.60
19248;DHT22;9758;48.640;8.148;2022-10-31T00:50:49;18.30;51.60
19248;DHT22;9758;48.640;8.148;2022-10-31T00:53:16;18.30;51.60
19248;DHT22;9758;48.640;8.148;2022-10-31T00:55:44;18.30;51.60
19248;DHT22;9758;48.640;8.148;2022-10-31T00:58:10;18.30;51.60
19248;DHT22;9758;48.640;8.148;2022-10-31T01:00:37;18.30;51.60
19248;DHT22;9758;48.640;8.148;2022-10-31T01:03:04;18.20;51.60
19248;DHT22;9758;48.640;8.148;2022-10-31T01:05:31;18.20;51.60
19248;DHT22;9758;48.640;8.148;2022-10-31T01:07:58;18.30;51.60
19248;DHT22;9758;48.640;8.148;2022-10-31T01:10:25;18.30;51.60
19248;DHT22;9758;48.640;8.148;2022-10-31T01:12:53;18.30;51.60
19248;DHT22;9758;48.640;8.148;2022-10-31T01:15:21;18.20;51.60
19248;DHT22;9758;48.640;8.148;2022-10-31T01:17:49;18.20;51.50
19248;DHT22;9758;48.640;8.148;2022-10-31T01:20:17;18.20;51.50
19248;DHT22;9758;48.640;8.148;2022-10-31T01:22:44;18.20;51.50
19248;DHT22;9758;48.640;8.148;2022-10-31T01:25:11;18.20;51.50
19248;DHT22;9758;48.640;8.148;2022-10-31T01:27:37;18.20;51.50
19248;DHT22;9758;48.640;8.148;2022-10-31T01:30:07;18.20;51.50
19248;DHT22;9758;48.640;8.148;2022-10-31T01:32:34;18.20;51.50
19248;DHT22;9758;48.640;8.148;2022-10-31T01:35:00;18.20;51.50
19248;DHT22;9758;48.640;8.148;2022-10-31T01:37:27;18.20;51.50
19248;DHT22;9758;48.640;8.148;2022-10-31T01:39:54;18.20;51.50
19248;DHT22;9758;48.640;8.148;2022-10-31T01:42:22;18.20;51.50
19248;DHT22;9758;48.640;8.148;2022-10-31T01:45:00;18.20;51.50
19248;DHT22;9758;48.640;8.148;2022-10-31T01:47:35;18.10;51.50
19248;DHT22;9758;48.640;8.148;2022-10-31T01:50:09;18.10;51.50
19248;DHT22;9758;48.640;8.148;2022-10-31T01:52:38;18.10;51.50
19248;DHT22;9758;48.640;8.148;2022-10-31T01:55:10;18.10;51.50
19248;DHT22;9758;48.640;8.148;2022-10-31T01:57:41;18.10;51.50
19248;DHT22;9758;48.640;8.148;2022-10-31T02:00:10;18.10;51.50
19248;DHT22;9758;48.640;8.148;2022-10-31T02:02:39;18.10;51.50
19248;DHT22;9758;48.640;8.148;2022-10-31T02:05:10;18.10;51.50
19248;DHT22;9758;48.640;8.148;2022-10-31T02:07:41;18.10;51.50
19248;DHT22;9758;48.640;8.148;2022-10-31T02:10:09;18.10;51.50
19248;DHT22;9758;48.640;8.148;2022-10-31T02:12:36;18.10;51.50
19248;DHT22;9758;48.640;8.148;2022-10-31T02:15:04;18.10;51.50
19248;DHT22;9758;48.640;8.148;2022-10-31T02:17:31;18.10;51.40
19248;DHT22;9758;48.640;8.148;2022-10-31T02:20:10;18.10;51.50
19248;DHT22;9758;48.640;8.148;2022-10-31T02:22:54;18.00;51.50
19248;DHT22;9758;48.640;8.148;2022-10-31T02:25:51;18.10;51.50
19248;DHT22;9758;48.640;8.148;2022-10-31T02:28:35;18.00;51.50
19248;DHT22;9758;48.640;8.148;2022-10-31T02:31:20;18.00;51.50
19248;DHT22;9758;48.640;8.148;2022-10-31T02:33:51;18.00;51.50
19248;DHT22;9758;48.640;8.148;2022-10-31T02:36:24;18.00;51.50
19248;DHT22;9758;48.640;8.148;2022-10-31T02:39:00;18.00;51.50
19248;DHT22;9758;48.640;8.148;2022-10-31T02:41:33;18.00;51.50
19248;DHT22;9758;48.640;8.148;2022-10-31T02:44:07;18.00;51.50
19248;DHT22;9758;48.640;8.148;2022-10-31T02:46:42;18.00;51.60
19248;DHT22;9758;48.640;8.148;2022-10-31T02:49:18;18.00;51.60
19248;DHT22;9758;48.640;8.148;2022-10-31T02:51:47;18.00;51.60
19248;DHT22;9758;48.640;8.148;2022-10-31T02:54:18;17.90;51.60
19248;DHT22;9758;48.640;8.148;2022-10-31T02:56:46;17.90;51.60
19248;DHT22;9758;48.640;8.148;2022-10-31T02:59:14;17.90;51.60
19248;DHT22;9758;48.640;8.148;2022-10-31T03:02:00;17.90;51.60
19248;DHT22;9758;48.640;8.148;2022-10-31T03:04:37;17.90;51.60
19248;DHT22;9758;48.640;8.148;2022-10-31T03:07:13;17.90;51.60
19248;DHT22;9758;48.640;8.148;2022-10-31T03:09:48;17.90;51.60
19248;DHT22;9758;48.640;8.148;2022-10-31T03:12:25;17.90;51.60
19248;DHT22;9758;48.640;8.148;2022-10-31T03:14:56;17.90;51.80
19248;DHT22;9758;48.640;8.148;2022-10-31T03:17:33;17.90;51.60
19248;DHT22;9758;48.640;8.148;2022-10-31T03:20:01;17.90;51.60
19248;DHT22;9758;48.640;8.148;2022-10-31T03:22:36;17.90;51.60
19248;DHT22;9758;48.640;8.148;2022-10-31T03:25:06;17.90;51.60
19248;DHT22;9758;48.640;8.148;2022-10-31T03:27:36;17.90;51.60
19248;DHT22;9758;48.640;8.148;2022-10-31T03:30:05;17.90;51.60
19248;DHT22;9758;48.640;8.148;2022-10-31T03:32:38;17.80;51.60
19248;DHT22;9758;48.640;8.148;2022-10-31T03:35:08;17.90;51.60
19248;DHT22;9758;48.640;8.148;2022-10-31T03:37:37;17.80;51.60
19248;DHT22;9758;48.640;8.148;2022-10-31T03:40:07;17.80;51.60
19248;DHT22;9758;48.640;8.148;2022-10-31T03:42:38;17.80;51.60
19248;DHT22;9758;48.640;8.148;2022-10-31T03:45:10;17.70;51.50
19248;DHT22;9758;48.640;8.148;2022-10-31T03:47:39;17.70;51.60
19248;DHT22;9758;48.640;8.148;2022-10-31T03:50:08;17.70;51.60
19248;DHT22;9758;48.640;8.148;2022-10-31T03:52:38;17.60;51.60
19248;DHT22;9758;48.640;8.148;2022-10-31T03:55:10;17.60;51.60
19248;DHT22;9758;48.640;8.148;2022-10-31T03:57:43;17.60;51.60
19248;DHT22;9758;48.640;8.148;2022-10-31T04:00:13;17.60;51.70
19248;DHT22;9758;48.640;8.148;2022-10-31T04:02:46;17.60;51.70
19248;DHT22;9758;48.640;8.148;2022-10-31T04:05:16;17.50;51.70
19248;DHT22;9758;48.640;8.148;2022-10-31T04:07:46;17.50;51.60
19248;DHT22;9758;48.640;8.148;2022-10-31T04:10:15;17.50;51.60
19248;DHT22;9758;48.640;8.148;2022-10-31T04:12:44;17.50;51.60
19248;DHT22;9758;48.640;8.148;2022-10-31T04:15:12;17.40;51.60
19248;DHT22;9758;48.640;8.148;2022-10-31T04:17:44;17.40;51.60
19248;DHT22;9758;48.640;8.148;2022-10-31T04:20:15;17.40;51.70
19248;DHT22;9758;48.640;8.148;2022-10-31T04:22:42;17.40;51.70
19248;DHT22;9758;48.640;8.148;2022-10-31T04:25:08;17.40;51.70
19248;DHT22;9758;48.640;8.148;2022-10-31T04:27:35;17.30;51.70
19248;DHT22;9758;48.640;8.148;2022-10-31T04:30:02;17.30;51.70
19248;DHT22;9758;48.640;8.148;2022-10-31T04:32:29;17.30;51.80
19248;DHT22;9758;48.640;8.148;2022-10-31T04:34:57;17.30;51.80
19248;DHT22;9758;48.640;8.148;2022-10-31T04:37:24;17.30;51.80
19248;DHT22;9758;48.640;8.148;2022-10-31T04:39:51;17.30;51.80
19248;DHT22;9758;48.640;8.148;2022-10-31T04:42:17;17.30;51.90
19248;DHT22;9758;48.640;8.148;2022-10-31T04:44:44;17.20;51.80
19248;DHT22;9758;48.640;8.148;2022-10-31T04:47:11;17.20;51.90
19248;DHT22;9758;48.640;8.148;2022-10-31T04:49:38;17.20;51.90
19248;DHT22;9758;48.640;8.148;2022-10-31T04:52:06;17.20;52.00
19248;DHT22;9758;48.640;8.148;2022-10-31T04:54:33;17.10;52.20
19248;DHT22;9758;48.640;8.148;2022-10-31T04:57:00;17.10;52.00
19248;DHT22;9758;48.640;8.148;2022-10-31T04:59:27;17.00;52.00
19248;DHT22;9758;48.640;8.148;2022-10-31T05:01:53;17.10;52.10
19248;DHT22;9758;48.640;8.148;2022-10-31T05:04:20;17.10;52.10
19248;DHT22;9758;48.640;8.148;2022-10-31T05:06:47;17.00;52.10
19248;DHT22;9758;48.640;8.148;2022-10-31T05:09:15;17.00;52.10
19248;DHT22;9758;48.640;8.148;2022-10-31T05:11:42;17.00;52.20
19248;DHT22;9758;48.640;8.148;2022-10-31T05:14:09;16.90;52.10
19248;DHT22;9758;48.640;8.148;2022-10-31T05:16:36;16.90;52.10
19248;DHT22;9758;48.640;8.148;2022-10-31T05:19:02;16.90;52.10
19248;DHT22;9758;48.640;8.148;2022-10-31T05:21:29;16.80;52.20
19248;DHT22;9758;48.640;8.148;2022-10-31T05:23:56;16.80;52.30
19248;DHT22;9758;48.640;8.148;2022-10-31T05:26:24;16.80;52.30
19248;DHT22;9758;48.640;8.148;2022-10-31T05:28:51;16.70;52.30
19248;DHT22;9758;48.640;8.148;2022-10-31T05:31:18;16.70;52.40
19248;DHT22;9758;48.640;8.148;2022-10-31T05:33:44;16.60;52.30
19248;DHT22;9758;48.640;8.148;2022-10-31T05:36:11;16.60;52.40
19248;DHT22;9758;48.640;8.148;2022-10-31T05:38:38;16.60;52.40
19248;DHT22;9758;48.640;8.148;2022-10-31T05:41:05;16.60;52.50
19248;DHT22;9758;48.640;8.148;2022-10-31T05:43:33;16.60;52.50
19248;DHT22;9758;48.640;8.148;2022-10-31T05:46:00;16.50;52.50
19248;DHT22;9758;48.640;8.148;2022-10-31T05:48:26;16.50;52.50
19248;DHT22;9758;48.640;8.148;2022-10-31T05:50:53;16.50;52.60
19248;DHT22;9758;48.640;8.148;2022-10-31T05:53:20;16.40;52.50
19248;DHT22;9758;48.640;8.148;2022-10-31T05:55:47;16.40;52.60
19248;DHT22;9758;48.640;8.148;2022-10-31T05:58:13;16.40;52.60
19248;DHT22;9758;48.640;8.148;2022-10-31T06:00:41;16.40;52.60
19248;DHT22;9758;48.640;8.148;2022-10-31T06:03:09;16.40;52.70
19248;DHT22;9758;48.640;8.148;2022-10-31T06:05:36;16.30;52.70
19248;DHT22;9758;48.640;8.148;2022-10-31T06:08:03;16.40;52.80
19248;DHT22;9758;48.640;8.148;2022-10-31T06:10:30;16.30;52.70
19248;DHT22;9758;48.640;8.148;2022-10-31T06:12:56;16.40;52.80
19248;DHT22;9758;48.640;8.148;2022-10-31T06:15:23;16.30;52.80
19248;DHT22;9758;48.640;8.148;2022-10-31T06:17:59;16.40;52.90
19248;DHT22;9758;48.640;8.148;2022-10-31T06:20:26;16.40;52.90
19248;DHT22;9758;48.640;8.148;2022-10-31T06:22:53;16.40;52.90
19248;DHT22;9758;48.640;8.148;2022-10-31T06:25:19;16.40;52.90
19248;DHT22;9758;48.640;8.148;2022-10-31T06:27:46;16.40;53.00
19248;DHT22;9758;48.640;8.148;2022-10-31T06:30:13;16.40;52.90
19248;DHT22;9758;48.640;8.148;2022-10-31T06:32:40;16.40;53.00
19248;DHT22;9758;48.640;8.148;2022-10-31T06:35:08;16.40;53.00
19248;DHT22;9758;48.640;8.148;2022-10-31T06:37:35;16.40;53.00
19248;DHT22;9758;48.640;8.148;2022-10-31T06:40:02;16.50;53.00
19248;DHT22;9758;48.640;8.148;2022-10-31T06:42:29;16.50;53.00
19248;DHT22;9758;48.640;8.148;2022-10-31T06:44:56;16.50;53.10
19248;DHT22;9758;48.640;8.148;2022-10-31T06:47:23;16.50;53.10
19248;DHT22;9758;48.640;8.148;2022-10-31T06:49:49;16.40;53.00
19248;DHT22;9758;48.640;8.148;2022-10-31T06:52:18;16.50;53.10
19248;DHT22;9758;48.640;8.148;2022-10-31T06:54:44;16.50;53.10
19248;DHT22;9758;48.640;8.148;2022-10-31T06:57:11;16.50;53.10
19248;DHT22;9758;48.640;8.148;2022-10-31T06:59:38;16.60;53.20
19248;DHT22;9758;48.640;8.148;2022-10-31T07:02:08;16.60;53.20
19248;DHT22;9758;48.640;8.148;2022-10-31T07:04:35;16.60;53.20
19248;DHT22;9758;48.640;8.148;2022-10-31T07:07:02;16.60;53.20
19248;DHT22;9758;48.640;8.148;2022-10-31T07:09:30;16.70;53.20
19248;DHT22;9758;48.640;8.148;2022-10-31T07:11:57;16.70;53.20
19248;DHT22;9758;48.640;8.148;2022-10-31T07:14:24;16.70;53.20
19248;DHT22;9758;48.640;8.148;2022-10-31T07:16:50;16.70;53.20
19248;DHT22;9758;48.640;8.148;2022-10-31T07:19:17;16.70;53.20
19248;DHT22;9758;48.640;8.148;2022-10-31T07:21:44;16.80;53.30
19248;DHT22;9758;48.640;8.148;2022-10-31T07:24:11;16.80;53.30
19248;DHT22;9758;48.640;8.148;2022-10-31T07:26:39;16.80;53.30
19248;DHT22;9758;48.640;8.148;2022-10-31T07:29:07;16.90;53.40
19248;DHT22;9758;48.640;8.148;2022-10-31T07:31:34;16.90;53.30
19248;DHT22;9758;48.640;8.148;2022-10-31T07:34:01;16.90;53.30
19248;DHT22;9758;48.640;8.148;2022-10-31T07:36:28;17.00;53.40
19248;DHT22;9758;48.640;8.148;2022-10-31T07:38:54;17.00;53.40
19248;DHT22;9758;48.640;8.148;2022-10-31T07:41:21;17.10;53.40
19248;DHT22;9758;48.640;8.148;2022-10-31T07:43:51;17.10;53.40
19248;DHT22;9758;48.640;8.148;2022-10-31T07:46:18;17.10;53.40
19248;DHT22;9758;48.640;8.148;2022-10-31T07:48:45;17.20;53.40
19248;DHT22;9758;48.640;8.148;2022-10-31T07:51:12;17.30;53.50
19248;DHT22;9758;48.640;8.148;2022-10-31T07:53:38;17.30;53.40
19248;DHT22;9758;48.640;8.148;2022-10-31T07:56:05;17.30;53.40
19248;DHT22;9758;48.640;8.148;2022-10-31T07:58:32;17.40;53.40
19248;DHT22;9758;48.640;8.148;2022-10-31T08:01:00;17.50;53.40
19248;DHT22;9758;48.640;8.148;2022-10-31T08:03:27;17.60;53.50
19248;DHT22;9758;48.640;8.148;2022-10-31T08:05:54;17.60;53.40
19248;DHT22;9758;48.640;8.148;2022-10-31T08:08:22;17.70;53.50
19248;DHT22;9758;48.640;8.148;2022-10-31T08:10:51;17.80;53.50
19248;DHT22;9758;48.640;8.148;2022-10-31T08:13:17;17.80;53.40
19248;DHT22;9758;48.640;8.148;2022-10-31T08:15:44;17.90;53.40
19248;DHT22;9758;48.640;8.148;2022-10-31T08:18:16;18.00;53.40
19248;DHT22;9758;48.640;8.148;2022-10-31T08:20:43;18.10;53.40
19248;DHT22;9758;48.640;8.148;2022-10-31T08:23:11;18.10;53.90
19248;DHT22;9758;48.640;8.148;2022-10-31T08:25:38;18.20;53.50
19248;DHT22;9758;48.640;8.148;2022-10-31T08:28:06;18.30;53.40
19248;DHT22;9758;48.640;8.148;2022-10-31T08:30:35;18.40;53.30
19248;DHT22;9758;48.640;8.148;2022-10-31T08:33:04;18.40;53.20
19248;DHT22;9758;48.640;8.148;2022-10-31T08:35:33;18.40;53.10
19248;DHT22;9758;48.640;8.148;2022-10-31T08:38:00;18.40;53.10
19248;DHT22;9758;48.640;8.148;2022-10-31T08:40:28;18.30;53.20
19248;DHT22;9758;48.640;8.148;2022-10-31T08:42:56;18.40;53.30
19248;DHT22;9758;48.640;8.148;2022-10-31T08:45:24;18.40;53.20
19248;DHT22;9758;48.640;8.148;2022-10-31T08:47:51;18.40;53.10
19248;DHT22;9758;48.640;8.148;2022-10-31T08:50:18;18.40;53.20
19248;DHT22;9758;48.640;8.148;2022-10-31T08:52:46;18.50;53.20
19248;DHT22;9758;48.640;8.148;2022-10-31T08:55:13;18.50;53.20
19248;DHT22;9758;48.640;8.148;2022-10-31T08:57:40;18.60;53.20
19248;DHT22;9758;48.640;8.148;2022-10-31T09:00:08;18.60;53.10
19248;DHT22;9758;48.640;8.148;2022-10-31T09:02:34;18.70;53.10
19248;DHT22;9758;48.640;8.148;2022-10-31T09:05:02;18.70;53.10
19248;DHT22;9758;48.640;8.148;2022-10-31T09:07:29;18.80;53.10
19248;DHT22;9758;48.640;8.148;2022-10-31T09:09:57;18.90;53.10
19248;DHT22;9758;48.640;8.148;2022-10-31T09:12:24;18.90;53.00
19248;DHT22;9758;48.640;8.148;2022-10-31T09:14:51;18.90;53.00
19248;DHT22;9758;48.640;8.148;2022-10-31T09:17:17;18.90;53.00
19248;DHT22;9758;48.640;8.148;2022-10-31T09:19:44;18.90;53.00
19248;DHT22;9758;48.640;8.148;2022-10-31T09:22:11;18.90;53.00
19248;DHT22;9758;48.640;8.148;2022-10-31T09:24:38;18.90;53.00
19248;DHT22;9758;48.640;8.148;2022-10-31T09:27:06;18.90;53.00
19248;DHT22;9758;48.640;8.148;2022-10-31T09:29:34;19.00;53.00
19248;DHT22;9758;48.640;8.148;2022-10-31T09:32:01;19.00;53.10
19248;DHT22;9758;48.640;8.148;2022-10-31T09:34:28;19.00;53.10
19248;DHT22;9758;48.640;8.148;2022-10-31T09:36:54;19.00;53.10
19248;DHT22;9758;48.640;8.148;2022-10-31T09:39:21;19.00;53.10
19248;DHT22;9758;48.640;8.148;2022-10-31T09:42:03;19.00;53.10
19248;DHT22;9758;48.640;8.148;2022-10-31T09:44:44;18.90;53.30
19248;DHT22;9758;48.640;8.148;2022-10-31T09:47:17;19.00;53.30
19248;DHT22;9758;48.640;8.148;2022-10-31T09:49:58;18.90;53.40
19248;DHT22;9758;48.640;8.148;2022-10-31T09:52:30;18.90;53.30
19248;DHT22;9758;48.640;8.148;2022-10-31T09:55:02;18.90;53.40
19248;DHT22;9758;48.640;8.148;2022-10-31T09:57:32;19.00;53.40
19248;DHT22;9758;48.640;8.148;2022-10-31T10:00:03;19.00;53.40
19248;DHT22;9758;48.640;8.148;2022-10-31T10:02:34;19.10;53.30
19248;DHT22;9758;48.640;8.148;2022-10-31T10:05:05;19.00;53.30
19248;DHT22;9758;48.640;8.148;2022-10-31T10:07:44;19.00;53.30
19248;DHT22;9758;48.640;8.148;2022-10-31T10:10:15;19.00;53.40
19248;DHT22;9758;48.640;8.148;2022-10-31T10:13:11;19.00;53.40
19248;DHT22;9758;48.640;8.148;2022-10-31T10:18:46;19.00;53.50
19248;DHT22;9758;48.640;8.148;2022-10-31T10:21:24;19.00;53.50
19248;DHT22;9758;48.640;8.148;2022-10-31T10:24:04;19.00;53.50
19248;DHT22;9758;48.640;8.148;2022-10-31T10:26:37;19.00;53.50
19248;DHT22;9758;48.640;8.148;2022-10-31T10:29:24;19.00;53.50
19248;DHT22;9758;48.640;8.148;2022-10-31T10:31:52;19.10;53.60
19248;DHT22;9758;48.640;8.148;2022-10-31T10:34:23;19.10;53.50
19248;DHT22;9758;48.640;8.148;2022-10-31T10:36:56;19.00;53.60
19248;DHT22;9758;48.640;8.148;2022-10-31T10:39:29;19.00;53.70
19248;DHT22;9758;48.640;8.148;2022-10-31T10:41:58;19.00;53.80
19248;DHT22;9758;48.640;8.148;2022-10-31T10:44:45;18.90;53.80
19248;DHT22;9758;48.640;8.148;2022-10-31T10:47:36;18.90;53.80
19248;DHT22;9758;48.640;8.148;2022-10-31T10:50:12;18.90;53.80
19248;DHT22;9758;48.640;8.148;2022-10-31T10:52:47;18.90;53.90
19248;DHT22;9758;48.640;8.148;2022-10-31T10:55:22;18.90;53.90
19248;DHT22;9758;48.640;8.148;2022-10-31T10:57:56;19.00;53.90
19248;DHT22;9758;48.640;8.148;2022-10-31T11:00:27;19.10;53.80
19248;DHT22;9758;48.640;8.148;2022-10-31T11:02:55;19.20;53.70
19248;DHT22;9758;48.640;8.148;2022-10-31T11:05:30;19.30;53.70
19248;DHT22;9758;48.640;8.148;2022-10-31T11:07:59;19.30;53.70
19248;DHT22;9758;48.640;8.148;2022-10-31T11:10:26;19.30;53.60
19248;DHT22;9758;48.640;8.148;2022-10-31T11:13:17;19.30;53.60
19248;DHT22;9758;48.640;8.148;2022-10-31T11:15:59;19.20;53.70
19248;DHT22;9758;48.640;8.148;2022-10-31T11:18:29;19.20;54.10
19248;DHT22;9758;48.640;8.148;2022-10-31T11:20:59;19.20;54.10
19248;DHT22;9758;48.640;8.148;2022-10-31T11:23:27;19.10;54.00
19248;DHT22;9758;48.640;8.148;2022-10-31T11:25:56;19.00;54.10
19248;DHT22;9758;48.640;8.148;2022-10-31T11:28:23;19.10;54.20
19248;DHT22;9758;48.640;8.148;2022-10-31T11:30:52;19.20;54.10
19248;DHT22;9758;48.640;8.148;2022-10-31T11:33:24;19.30;54.00
19248;DHT22;9758;48.640;8.148;2022-10-31T11:35:53;19.40;53.90
19248;DHT22;9758;48.640;8.148;2022-10-31T11:38:24;19.30;53.90
19248;DHT22;9758;48.640;8.148;2022-10-31T11:40:53;19.30;53.90
19248;DHT22;9758;48.640;8.148;2022-10-31T11:43:23;19.30;53.90
19248;DHT22;9758;48.640;8.148;2022-10-31T11:45:51;19.30;54.00
19248;DHT22;9758;48.640;8.148;2022-10-31T11:48:20;19.30;54.00
19248;DHT22;9758;48.640;8.148;2022-10-31T11:50:50;19.40;54.00
19248;DHT22;9758;48.640;8.148;2022-10-31T11:53:19;19.40;53.90
19248;DHT22;9758;48.640;8.148;2022-10-31T11:56:01;19.50;53.80
19248;DHT22;9758;48.640;8.148;2022-10-31T11:58:28;19.50;53.90
19248;DHT22;9758;48.640;8.148;2022-10-31T12:00:56;19.50;53.70
19248;DHT22;9758;48.640;8.148;2022-10-31T12:03:33;19.50;53.80
19248;DHT22;9758;48.640;8.148;2022-10-31T12:06:08;19.50;53.80
19248;DHT22;9758;48.640;8.148;2022-10-31T12:08:39;19.50;53.80
19248;DHT22;9758;48.640;8.148;2022-10-31T12:11:14;19.50;53.70
19248;DHT22;9758;48.640;8.148;2022-10-31T12:13:56;19.50;53.70
19248;DHT22;9758;48.640;8.148;2022-10-31T12:16:29;19.40;53.80
19248;DHT22;9758;48.640;8.148;2022-10-31T12:19:00;19.40;54.00
19248;DHT22;9758;48.640;8.148;2022-10-31T12:21:41;19.40;54.10
19248;DHT22;9758;48.640;8.148;2022-10-31T12:24:19;19.40;54.00
19248;DHT22;9758;48.640;8.148;2022-10-31T12:27:00;19.50;54.10
19248;DHT22;9758;48.640;8.148;2022-10-31T12:29:52;19.60;54.10
19248;DHT22;9758;48.640;8.148;2022-10-31T12:32:33;19.70;54.00
19248;DHT22;9758;48.640;8.148;2022-10-31T12:35:21;19.80;53.90
19248;DHT22;9758;48.640;8.148;2022-10-31T12:38:01;19.90;53.90
19248;DHT22;9758;48.640;8.148;2022-10-31T12:40:41;20.00;53.80
19248;DHT22;9758;48.640;8.148;2022-10-31T12:43:24;20.10;53.70
19248;DHT22;9758;48.640;8.148;2022-10-31T12:45:54;20.20;53.70
19248;DHT22;9758;48.640;8.148;2022-10-31T12:51:23;20.30;53.60
19248;DHT22;9758;48.640;8.148;2022-10-31T12:54:04;20.30;53.60
19248;DHT22;9758;48.640;8.148;2022-10-31T12:56:42;20.40;53.70
19248;DHT22;9758;48.640;8.148;2022-10-31T12:59:21;20.40;53.90
19248;DHT22;9758;48.640;8.148;2022-10-31T13:01:52;20.30;53.80
19248;DHT22;9758;48.640;8.148;2022-10-31T13:04:36;20.30;53.90
19248;DHT22;9758;48.640;8.148;2022-10-31T13:07:08;20.50;54.00
19248;DHT22;9758;48.640;8.148;2022-10-31T13:09:42;20.60;53.90
19248;DHT22;9758;48.640;8.148;2022-10-31T13:12:13;20.70;53.70
19248;DHT22;9758;48.640;8.148;2022-10-31T13:14:45;20.60;53.60
19248;DHT22;9758;48.640;8.148;2022-10-31T13:17:20;20.50;53.60
19248;DHT22;9758;48.640;8.148;2022-10-31T13:19:49;20.40;53.60
19248;DHT22;9758;48.640;8.148;2022-10-31T13:22:20;20.40;53.80
19248;DHT22;9758;48.640;8.148;2022-10-31T13:24:52;20.30;53.80
19248;DHT22;9758;48.640;8.148;2022-10-31T13:27:22;20.20;53.90
19248;DHT22;9758;48.640;8.148;2022-10-31T13:29:58;20.10;54.00
19248;DHT22;9758;48.640;8.148;2022-10-31T13:32:28;20.00;54.00
19248;DHT22;9758;48.640;8.148;2022-10-31T13:34:58;19.90;54.00
19248;DHT22;9758;48.640;8.148;2022-10-31T13:37:32;19.90;54.10
19248;DHT22;9758;48.640;8.148;2022-10-31T13:40:11;19.90;54.10
19248;DHT22;9758;48.640;8.148;2022-10-31T13:42:52;19.80;54.10
19248;DHT22;9758;48.640;8.148;2022-10-31T13:45:24;19.80;54.30
19248;DHT22;9758;48.640;8.148;2022-10-31T13:47:56;19.90;54.20
19248;DHT22;9758;48.640;8.148;2022-10-31T13:50:24;19.90;54.10
19248;DHT22;9758;48.640;8.148;2022-10-31T13:52:51;19.90;54.00
19248;DHT22;9758;48.640;8.148;2022-10-31T13:55:39;19.90;54.10
19248;DHT22;9758;48.640;8.148;2022-10-31T13:58:21;19.90;54.20
19248;DHT22;9758;48.640;8.148;2022-10-31T14:01:01;20.00;54.10
19248;DHT22;9758;48.640;8.148;2022-10-31T14:03:29;20.10;54.00
19248;DHT22;9758;48.640;8.148;2022-10-31T14:05:57;20.20;53.90
19248;DHT22;9758;48.640;8.148;2022-10-31T14:08:24;20.20;53.80
19248;DHT22;9758;48.640;8.148;2022-10-31T14:10:53;20.30;53.80
19248;DHT22;9758;48.640;8.148;2022-10-31T14:13:22;20.30;53.80
19248;DHT22;9758;48.640;8.148;2022-10-31T14:15:55;20.30;53.80
19248;DHT22;9758;48.640;8.148;2022-10-31T14:18:27;20.40;53.90
19248;DHT22;9758;48.640;8.148;2022-10-31T14:20:55;20.40;53.70
19248;DHT22;9758;48.640;8.148;2022-10-31T14:23:37;20.40;53.60
19248;DHT22;9758;48.640;8.148;2022-10-31T14:26:31;20.40;53.70
19248;DHT22;9758;48.640;8.148;2022-10-31T14:29:00;20.50;53.90
19248;DHT22;9758;48.640;8.148;2022-10-31T14:31:34;20.50;53.70
19248;DHT22;9758;48.640;8.148;2022-10-31T14:34:17;20.50;53.80
19248;DHT22;9758;48.640;8.148;2022-10-31T14:36:53;20.40;53.70
19248;DHT22;9758;48.640;8.148;2022-10-31T14:39:29;20.50;53.80
19248;DHT22;9758;48.640;8.148;2022-10-31T14:42:07;20.50;53.80
19248;DHT22;9758;48.640;8.148;2022-10-31T14:44:48;20.50;53.90
19248;DHT22;9758;48.640;8.148;2022-10-31T14:47:27;20.50;53.90
19248;DHT22;9758;48.640;8.148;2022-10-31T14:50:14;20.50;53.80
19248;DHT22;9758;48.640;8.148;2022-10-31T14:52:48;20.50;53.90
19248;DHT22;9758;48.640;8.148;2022-10-31T14:55:16;20.40;53.80
19248;DHT22;9758;48.640;8.148;2022-10-31T14:57:48;20.40;53.80
19248;DHT22;9758;48.640;8.148;2022-10-31T15:00:18;20.50;53.90
19248;DHT22;9758;48.640;8.148;2022-10-31T15:03:00;20.50;53.90
19248;DHT22;9758;48.640;8.148;2022-10-31T15:05:31;20.50;53.90
19248;DHT22;9758;48.640;8.148;2022-10-31T15:07:59;20.50;53.90
19248;DHT22;9758;48.640;8.148;2022-10-31T15:10:28;20.50;54.00
19248;DHT22;9758;48.640;8.148;2022-10-31T15:13:08;20.50;53.90
19248;DHT22;9758;48.640;8.148;2022-10-31T15:15:36;20.50;53.90
19248;DHT22;9758;48.640;8.148;2022-10-31T15:18:04;20.50;53.90
19248;DHT22;9758;48.640;8.148;2022-10-31T15:20:37;20.50;53.90
19248;DHT22;9758;48.640;8.148;2022-10-31T15:23:11;20.50;53.90
19248;DHT22;9758;48.640;8.148;2022-10-31T15:25:40;20.50;53.90
19248;DHT22;9758;48.640;8.148;2022-10-31T15:28:13;20.50;53.90
19248;DHT22;9758;48.640;8.148;2022-10-31T15:30:50;20.40;53.80
19248;DHT22;9758;48.640;8.148;2022-10-31T15:33:21;20.30;54.00
19248;DHT22;9758;48.640;8.148;2022-10-31T15:35:56;20.20;53.90
19248;DHT22;9758;48.640;8.148;2022-10-31T15:38:25;20.00;54.50
19248;DHT22;9758;48.640;8.148;2022-10-31T15:40:58;19.80;54.10
19248;DHT22;9758;48.640;8.148;2022-10-31T15:43:27;19.70;54.30
19248;DHT22;9758;48.640;8.148;2022-10-31T15:45:54;19.60;54.50
19248;DHT22;9758;48.640;8.148;2022-10-31T15:48:23;19.50;54.50
19248;DHT22;9758;48.640;8.148;2022-10-31T15:50:52;19.40;54.50
19248;DHT22;9758;48.640;8.148;2022-10-31T15:53:23;19.40;54.60
19248;DHT22;9758;48.640;8.148;2022-10-31T15:55:53;19.30;54.60
19248;DHT22;9758;48.640;8.148;2022-10-31T15:58:21;19.30;54.70
19248;DHT22;9758;48.640;8.148;2022-10-31T16:00:58;19.20;54.70
19248;DHT22;9758;48.640;8.148;2022-10-31T16:03:27;19.20;54.70
19248;DHT22;9758;48.640;8.148;2022-10-31T16:05:57;19.20;54.80
19248;DHT22;9758;48.640;8.148;2022-10-31T16:08:32;19.10;54.80
19248;DHT22;9758;48.640;8.148;2022-10-31T16:11:13;19.00;54.80
19248;DHT22;9758;48.640;8.148;2022-10-31T16:13:51;19.00;54.80